createdAt,value
2022-09-23T00:01:08.290Z,6.90
2022-09-23T00:03:37.369Z,6.90
2022-09-23T00:06:15.198Z,6.90
2022-09-23T00:08:42.267Z,6.90
2022-09-23T00:11:15.111Z,6.90
2022-09-23T00:13:44.914Z,6.90
2022-09-23T00:16:22.009Z,6.80
2022-09-23T00:18:50.580Z,6.80
2022-09-23T00:21:18.582Z,6.80
2022-09-23T00:23:45.534Z,6.80
2022-09-23T00:26:15.788Z,6.80
2022-09-23T00:28:43.308Z,6.80
2022-09-23T00:31:14.475Z,6.80
2022-09-23T00:33:41.561Z,6.70
2022-09-23T00:36:11.107Z,6.70
2022-09-23T00:38:38.958Z,6.60
2022-09-23T00:41:06.405Z,6.60
2022-09-23T00:43:46.911Z,6.60
2022-09-23T00:46:18.407Z,6.60
2022-09-23T00:48:48.160Z,6.60
2022-09-23T00:51:19.551Z,6.60
2022-09-23T00:53:50.141Z,6.50
2022-09-23T00:56:18.421Z,6.50
2022-09-23T00:58:47.608Z,6.50
2022-09-23T01:01:14.616Z,6.50
2022-09-23T01:03:46.064Z,6.40
2022-09-23T01:06:13.966Z,6.40
2022-09-23T01:08:44.359Z,6.40
2022-09-23T01:11:29.899Z,6.40
2022-09-23T01:14:31.318Z,6.30
2022-09-23T01:17:43.482Z,6.30
2022-09-23T01:20:24.878Z,6.30
2022-09-23T01:23:16.610Z,6.20
2022-09-23T01:26:30.903Z,6.30
2022-09-23T01:29:20.919Z,6.20
2022-09-23T01:32:00.923Z,6.10
2022-09-23T01:34:31.010Z,6.10
2022-09-23T01:37:12.742Z,6.00
2022-09-23T01:39:51.212Z,5.90
2022-09-23T01:42:27.288Z,5.90
2022-09-23T01:45:05.156Z,5.80
2022-09-23T01:47:58.122Z,5.80
2022-09-23T01:50:54.866Z,5.80
2022-09-23T01:53:28.901Z,5.70
2022-09-23T01:56:00.312Z,5.70
2022-09-23T01:59:14.668Z,5.70
2022-09-23T02:02:01.150Z,5.70
2022-09-23T02:04:54.334Z,5.60
2022-09-23T02:07:27.307Z,5.60
2022-09-23T02:10:14.602Z,5.60
2022-09-23T02:12:45.595Z,5.60
2022-09-23T02:15:21.148Z,5.50
2022-09-23T02:17:48.345Z,5.50
2022-09-23T02:20:21.017Z,5.50
2022-09-23T02:23:01.983Z,5.50
2022-09-23T02:25:39.384Z,5.50
2022-09-23T02:28:14.937Z,5.50
2022-09-23T02:30:58.935Z,5.50
2022-09-23T02:33:43.970Z,5.40
2022-09-23T02:36:20.791Z,5.40
2022-09-23T02:38:57.577Z,5.30
2022-09-23T02:41:51.460Z,5.30
2022-09-23T02:44:20.478Z,5.30
2022-09-23T02:46:47.892Z,5.20
2022-09-23T02:49:23.270Z,5.20
2022-09-23T02:51:51.333Z,5.20
2022-09-23T02:54:21.991Z,5.10
2022-09-23T02:56:49.647Z,5.10
2022-09-23T02:59:19.637Z,5.10
2022-09-23T03:01:47.677Z,5.10
2022-09-23T03:04:35.883Z,5.10
2022-09-23T03:07:02.866Z,5.10
2022-09-23T03:09:50.660Z,5.00
2022-09-23T03:12:31.849Z,5.10
2022-09-23T03:15:08.190Z,5.00
2022-09-23T03:17:47.723Z,5.10
2022-09-23T03:20:20.634Z,5.10
2022-09-23T03:22:53.808Z,5.10
2022-09-23T03:25:24.489Z,5.20
2022-09-23T03:27:56.481Z,5.20
2022-09-23T03:30:24.818Z,5.20
2022-09-23T03:32:53.194Z,5.00
2022-09-23T03:35:24.175Z,5.10
2022-09-23T03:38:03.152Z,5.10
2022-09-23T03:40:42.197Z,5.10
2022-09-23T03:43:13.454Z,5.20
2022-09-23T03:45:42.647Z,5.10
2022-09-23T03:48:09.706Z,5.10
2022-09-23T03:50:36.752Z,5.10
2022-09-23T03:53:03.739Z,5.10
2022-09-23T03:55:31.329Z,5.10
2022-09-23T03:58:00.265Z,5.10
2022-09-23T04:00:27.800Z,5.10
2022-09-23T04:02:54.717Z,5.10
2022-09-23T04:05:21.691Z,5.00
2022-09-23T04:07:49.260Z,5.00
2022-09-23T04:10:16.194Z,5.00
2022-09-23T04:12:43.326Z,5.00
2022-09-23T04:15:10.606Z,5.00
2022-09-23T04:17:37.559Z,5.00
2022-09-23T04:20:04.821Z,5.00
2022-09-23T04:22:33.745Z,4.90
2022-09-23T04:25:00.920Z,4.90
2022-09-23T04:27:27.857Z,4.90
2022-09-23T04:29:54.754Z,4.90
2022-09-23T04:32:21.643Z,4.90
2022-09-23T04:34:48.489Z,4.90
2022-09-23T04:37:15.405Z,4.90
2022-09-23T04:39:43.330Z,4.90
2022-09-23T04:42:10.321Z,4.90
2022-09-23T04:44:38.962Z,4.90
2022-09-23T04:47:06.066Z,4.90
2022-09-23T04:49:33.962Z,4.90
2022-09-23T04:52:01.798Z,5.00
2022-09-23T04:54:29.586Z,4.90
2022-09-23T04:56:56.523Z,5.00
2022-09-23T04:59:23.834Z,5.00
2022-09-23T05:01:52.073Z,5.00
2022-09-23T05:04:19.088Z,5.00
2022-09-23T05:06:46.049Z,5.00
2022-09-23T05:09:17.421Z,5.00
2022-09-23T05:11:45.627Z,5.00
2022-09-23T05:14:13.171Z,5.00
2022-09-23T05:16:40.767Z,5.10
2022-09-23T05:19:08.035Z,5.20
2022-09-23T05:21:35.254Z,5.20
2022-09-23T05:24:02.574Z,5.20
2022-09-23T05:26:31.860Z,5.20
2022-09-23T05:28:59.815Z,5.20
2022-09-23T05:31:28.959Z,5.30
2022-09-23T05:33:58.749Z,5.30
2022-09-23T05:36:27.574Z,5.30
2022-09-23T05:38:56.674Z,5.30
2022-09-23T05:41:24.576Z,5.40
2022-09-23T05:43:52.932Z,5.40
2022-09-23T05:46:21.538Z,5.40
2022-09-23T05:48:49.162Z,5.40
2022-09-23T05:51:19.005Z,5.40
2022-09-23T05:53:46.975Z,5.50
2022-09-23T05:56:18.319Z,5.50
2022-09-23T05:58:45.742Z,5.60
2022-09-23T06:01:15.228Z,5.60
2022-09-23T06:03:42.207Z,5.70
2022-09-23T06:06:14.669Z,5.70
2022-09-23T06:08:42.556Z,5.80
2022-09-23T06:11:10.416Z,5.80
2022-09-23T06:13:39.044Z,5.90
2022-09-23T06:16:08.098Z,6.00
2022-09-23T06:18:37.835Z,6.10
2022-09-23T06:21:05.458Z,6.20
2022-09-23T06:23:33.021Z,6.30
2022-09-23T06:26:06.243Z,6.40
2022-09-23T06:28:35.354Z,6.60
2022-09-23T06:31:12.854Z,6.60
2022-09-23T06:33:43.199Z,6.80
2022-09-23T06:36:11.338Z,7.00
2022-09-23T06:38:44.741Z,7.20
2022-09-23T06:41:12.699Z,7.50
2022-09-23T06:43:39.884Z,7.90
2022-09-23T06:46:08.312Z,8.30
2022-09-23T06:48:35.735Z,8.80
2022-09-23T06:51:05.438Z,9.20
2022-09-23T06:53:32.411Z,9.70
2022-09-23T06:56:05.898Z,10.10
2022-09-23T06:58:34.780Z,10.60
2022-09-23T07:01:16.098Z,11.00
2022-09-23T07:03:44.709Z,11.40
2022-09-23T07:06:12.047Z,11.60
2022-09-23T07:08:40.483Z,11.60
2022-09-23T07:11:13.505Z,11.50
2022-09-23T07:13:42.414Z,11.50
2022-09-23T07:16:11.085Z,11.60
2022-09-23T07:18:38.527Z,11.70
2022-09-23T07:21:15.160Z,11.80
2022-09-23T07:23:47.040Z,12.00
2022-09-23T07:26:14.839Z,12.10
2022-09-23T07:28:42.167Z,12.20
2022-09-23T07:31:21.738Z,12.40
2022-09-23T07:33:57.808Z,12.50
2022-09-23T07:36:28.014Z,12.50
2022-09-23T07:39:03.950Z,12.50
2022-09-23T07:41:32.957Z,12.50
2022-09-23T07:44:01.223Z,12.50
2022-09-23T07:46:30.899Z,12.50
2022-09-23T07:48:58.690Z,12.60
2022-09-23T07:51:35.757Z,12.60
2022-09-23T07:54:07.439Z,12.60
2022-09-23T07:56:36.001Z,12.60
2022-09-23T07:59:04.614Z,12.60
2022-09-23T08:01:38.033Z,12.70
2022-09-23T08:04:23.308Z,12.80
2022-09-23T08:06:54.095Z,13.00
2022-09-23T08:09:24.173Z,13.10
2022-09-23T08:11:52.518Z,13.30
2022-09-23T08:14:20.183Z,13.40
2022-09-23T08:16:47.707Z,13.50
2022-09-23T08:19:15.699Z,13.70
2022-09-23T08:21:42.967Z,13.80
2022-09-23T08:24:14.299Z,14.00
2022-09-23T08:26:42.037Z,14.30
2022-09-23T08:29:12.095Z,14.50
2022-09-23T08:31:38.960Z,14.70
2022-09-23T08:34:06.635Z,14.90
2022-09-23T08:36:34.494Z,15.20
2022-09-23T08:39:01.432Z,15.50
2022-09-23T08:41:36.039Z,15.60
2022-09-23T08:44:11.972Z,15.90
2022-09-23T08:46:46.579Z,16.10
2022-09-23T08:49:22.704Z,16.20
2022-09-23T08:51:51.823Z,16.10
2022-09-23T08:54:18.873Z,16.00
2022-09-23T08:56:49.690Z,15.70
2022-09-23T08:59:35.355Z,15.60
2022-09-23T09:02:14.648Z,15.50
2022-09-23T09:04:52.648Z,15.40
2022-09-23T09:07:36.139Z,15.30
2022-09-23T09:10:06.829Z,15.30
2022-09-23T09:12:50.712Z,15.20
2022-09-23T09:15:24.719Z,15.20
2022-09-23T09:17:52.176Z,15.10
2022-09-23T09:20:45.411Z,15.10
2022-09-23T09:23:22.166Z,15.10
2022-09-23T09:25:50.092Z,15.20
2022-09-23T09:28:41.323Z,15.20
2022-09-23T09:31:15.346Z,15.30
2022-09-23T09:33:55.428Z,16.30
2022-09-23T09:36:40.548Z,15.30
2022-09-23T09:39:12.261Z,15.40
2022-09-23T09:41:43.440Z,15.40
2022-09-23T09:44:37.140Z,15.50
2022-09-23T09:47:31.562Z,15.60
2022-09-23T09:50:22.145Z,15.70
2022-09-23T09:52:49.510Z,15.80
2022-09-23T09:55:25.585Z,15.80
2022-09-23T09:58:04.452Z,15.90
2022-09-23T10:00:31.603Z,15.90
2022-09-23T10:03:03.128Z,15.90
2022-09-23T10:05:34.223Z,16.00
2022-09-23T10:08:26.113Z,16.10
2022-09-23T10:11:04.743Z,16.10
2022-09-23T10:13:32.083Z,16.20
2022-09-23T10:16:02.198Z,16.20
2022-09-23T10:18:37.766Z,16.30
2022-09-23T10:21:17.702Z,16.40
2022-09-23T10:24:01.664Z,16.40
2022-09-23T10:26:41.203Z,16.40
2022-09-23T10:29:30.506Z,16.40
2022-09-23T10:32:37.319Z,16.30
2022-09-23T10:35:08.988Z,16.20
2022-09-23T10:37:41.775Z,16.20
2022-09-23T10:40:41.276Z,16.40
2022-09-23T10:43:35.678Z,16.50
2022-09-23T10:46:25.003Z,16.70
2022-09-23T10:48:57.642Z,16.80
2022-09-23T10:52:09.838Z,16.90
2022-09-23T10:54:42.573Z,17.10
2022-09-23T10:57:42.732Z,17.10
2022-09-23T11:00:10.439Z,17.10
2022-09-23T11:03:02.939Z,17.10
2022-09-23T11:05:55.413Z,17.10
2022-09-23T11:08:31.683Z,17.10
2022-09-23T11:11:17.122Z,17.10
2022-09-23T11:14:17.035Z,17.30
2022-09-23T11:17:15.397Z,17.50
2022-09-23T11:20:00.387Z,17.50
2022-09-23T11:22:43.979Z,17.60
2022-09-23T11:25:34.390Z,17.60
2022-09-23T11:28:17.791Z,17.70
2022-09-23T11:31:17.546Z,17.80
2022-09-23T11:34:10.833Z,17.90
2022-09-23T11:36:50.297Z,18.00
2022-09-23T11:39:23.210Z,18.20
2022-09-23T11:41:54.546Z,18.20
2022-09-23T11:44:29.747Z,18.30
2022-09-23T11:47:09.183Z,18.40
2022-09-23T11:50:01.450Z,18.40
2022-09-23T11:52:34.365Z,18.50
2022-09-23T11:55:22.661Z,18.60
2022-09-23T11:57:54.414Z,18.70
2022-09-23T12:00:28.044Z,18.80
2022-09-23T12:03:23.223Z,18.90
2022-09-23T12:05:58.643Z,18.90
2022-09-23T12:08:39.575Z,18.90
2022-09-23T12:11:24.873Z,19.00
2022-09-23T12:14:03.918Z,19.10
2022-09-23T12:16:33.701Z,19.20
2022-09-23T12:19:06.381Z,19.20
2022-09-23T12:21:53.064Z,19.20
2022-09-23T12:24:49.370Z,19.20
2022-09-23T12:27:28.619Z,19.20
2022-09-23T12:30:00.425Z,19.20
2022-09-23T12:32:27.926Z,19.20
2022-09-23T12:34:55.531Z,19.10
2022-09-23T12:37:49.137Z,19.10
2022-09-23T12:40:43.651Z,19.20
2022-09-23T12:43:19.047Z,19.30
2022-09-23T12:45:48.149Z,19.40
2022-09-23T12:48:18.196Z,19.40
2022-09-23T12:51:18.962Z,19.30
2022-09-23T12:53:52.704Z,19.20
2022-09-23T12:56:24.397Z,19.10
2022-09-23T12:58:51.429Z,19.20
2022-09-23T13:01:24.617Z,19.30
2022-09-23T13:04:17.482Z,19.50
2022-09-23T13:06:58.772Z,19.60
2022-09-23T13:09:31.800Z,19.60
2022-09-23T13:12:05.994Z,19.60
2022-09-23T13:14:34.107Z,19.60
2022-09-23T13:17:01.468Z,19.70
2022-09-23T13:19:28.550Z,19.60
2022-09-23T13:22:11.229Z,19.60
2022-09-23T13:24:40.773Z,19.70
2022-09-23T13:27:26.700Z,19.70
2022-09-23T13:30:25.965Z,19.80
2022-09-23T13:33:11.761Z,19.70
2022-09-23T13:35:43.476Z,19.80
2022-09-23T13:38:28.223Z,19.80
2022-09-23T13:41:01.914Z,19.70
2022-09-23T13:43:36.523Z,19.70
2022-09-23T13:46:13.393Z,19.80
2022-09-23T13:48:43.161Z,19.90
2022-09-23T13:51:18.715Z,20.00
2022-09-23T13:53:55.538Z,20.10
2022-09-23T13:56:24.928Z,20.10
2022-09-23T13:58:52.398Z,20.00
2022-09-23T14:01:32.955Z,19.90
2022-09-23T14:04:02.253Z,19.70
2022-09-23T14:06:37.749Z,19.40
2022-09-23T14:09:06.680Z,19.00
2022-09-23T14:11:35.471Z,18.80
2022-09-23T14:14:07.398Z,18.80
2022-09-23T14:16:38.321Z,18.70
2022-09-23T14:19:07.034Z,18.60
2022-09-23T14:21:40.429Z,18.60
2022-09-23T14:24:10.678Z,18.50
2022-09-23T14:26:39.376Z,18.40
2022-09-23T14:29:12.040Z,18.20
2022-09-23T14:31:39.480Z,18.10
2022-09-23T14:34:26.491Z,18.10
2022-09-23T14:37:13.093Z,18.20
2022-09-23T14:39:40.544Z,18.20
2022-09-23T14:42:07.659Z,18.20
2022-09-23T14:44:35.674Z,18.20
2022-09-23T14:47:03.145Z,18.20
2022-09-23T14:49:30.374Z,18.10
2022-09-23T14:52:06.905Z,18.20
2022-09-23T14:54:39.832Z,18.10
2022-09-23T14:57:25.458Z,18.20
2022-09-23T15:00:19.886Z,18.20
2022-09-23T15:03:00.715Z,18.20
2022-09-23T15:05:46.798Z,18.20
2022-09-23T15:08:26.326Z,18.10
2022-09-23T15:10:54.077Z,18.10
2022-09-23T15:13:33.557Z,18.80
2022-09-23T15:16:02.119Z,17.80
2022-09-23T15:18:37.512Z,17.70
2022-09-23T15:21:14.128Z,17.60
2022-09-23T15:23:41.516Z,17.60
2022-09-23T15:26:16.019Z,17.60
2022-09-23T15:28:43.952Z,17.60
2022-09-23T15:31:21.474Z,17.50
2022-09-23T15:33:49.541Z,17.50
2022-09-23T15:36:29.158Z,17.50
2022-09-23T15:39:01.266Z,17.50
2022-09-23T15:41:28.213Z,17.50
2022-09-23T15:43:56.562Z,17.50
2022-09-23T15:46:28.191Z,17.40
2022-09-23T15:49:00.128Z,17.40
2022-09-23T15:51:28.207Z,17.40
2022-09-23T15:53:56.061Z,17.30
2022-09-23T15:56:23.929Z,17.30
2022-09-23T15:58:51.288Z,17.40
2022-09-23T16:01:30.871Z,17.40
2022-09-23T16:04:00.325Z,17.40
2022-09-23T16:06:28.006Z,17.40
2022-09-23T16:08:55.751Z,17.30
2022-09-23T16:11:26.801Z,17.30
2022-09-23T16:13:53.802Z,17.20
2022-09-23T16:16:23.659Z,17.10
2022-09-23T16:18:53.768Z,17.20
2022-09-23T16:21:25.007Z,17.20
2022-09-23T16:23:53.453Z,17.20
2022-09-23T16:26:27.097Z,17.20
2022-09-23T16:28:56.478Z,17.20
2022-09-23T16:31:29.719Z,17.20
2022-09-23T16:33:57.765Z,17.20
2022-09-23T16:36:28.945Z,17.20
2022-09-23T16:38:56.788Z,17.10
2022-09-23T16:41:25.263Z,17.10
2022-09-23T16:43:53.641Z,17.10
2022-09-23T16:46:21.250Z,17.10
2022-09-23T16:48:52.596Z,17.00
2022-09-23T16:51:22.994Z,17.00
2022-09-23T16:53:51.534Z,16.90
2022-09-23T16:56:25.667Z,16.90
2022-09-23T16:58:55.510Z,16.80
2022-09-23T17:01:44.149Z,16.70
2022-09-23T17:04:12.375Z,16.60
2022-09-23T17:06:50.315Z,16.60
2022-09-23T17:09:19.947Z,16.60
2022-09-23T17:11:51.518Z,16.50
2022-09-23T17:14:18.448Z,16.50
2022-09-23T17:16:45.386Z,16.40
2022-09-23T17:19:12.632Z,16.20
2022-09-23T17:21:39.923Z,16.00
2022-09-23T17:24:07.520Z,15.90
2022-09-23T17:26:34.866Z,15.80
2022-09-23T17:29:02.186Z,15.80
2022-09-23T17:31:30.712Z,15.80
2022-09-23T17:33:57.800Z,15.70
2022-09-23T17:36:24.869Z,15.60
2022-09-23T17:38:54.503Z,15.40
2022-09-23T17:41:21.499Z,15.30
2022-09-23T17:43:53.509Z,17.10
2022-09-23T17:46:20.456Z,15.10
2022-09-23T17:48:47.464Z,15.10
2022-09-23T17:51:21.664Z,15.10
2022-09-23T17:53:49.873Z,15.00
2022-09-23T17:56:20.132Z,14.90
2022-09-23T17:58:49.460Z,14.90
2022-09-23T18:01:25.490Z,14.80
2022-09-23T18:04:00.905Z,14.80
2022-09-23T18:06:31.726Z,14.80
2022-09-23T18:09:06.569Z,14.70
2022-09-23T18:11:36.499Z,14.70
2022-09-23T18:14:16.037Z,14.60
2022-09-23T18:16:46.474Z,14.60
2022-09-23T18:19:15.975Z,14.60
2022-09-23T18:21:45.357Z,14.60
2022-09-23T18:27:00.270Z,14.50
2022-09-23T18:29:27.608Z,14.40
2022-09-23T18:31:54.724Z,14.40
2022-09-23T18:34:22.372Z,14.30
2022-09-23T18:36:49.542Z,14.30
2022-09-23T18:39:17.333Z,14.20
2022-09-23T18:41:44.332Z,14.20
2022-09-23T18:44:11.396Z,14.10
2022-09-23T18:46:38.524Z,14.10
2022-09-23T18:49:23.851Z,14.00
2022-09-23T18:51:56.167Z,14.00
2022-09-23T18:54:25.914Z,14.00
2022-09-23T18:56:52.897Z,13.90
2022-09-23T18:59:23.926Z,13.90
2022-09-23T19:01:51.791Z,13.90
2022-09-23T19:04:20.643Z,13.90
2022-09-23T19:06:48.235Z,13.90
2022-09-23T19:09:16.174Z,13.90
2022-09-23T19:11:44.419Z,13.90
2022-09-23T19:14:12.577Z,13.80
2022-09-23T19:16:41.011Z,13.70
2022-09-23T19:19:08.189Z,13.60
2022-09-23T19:21:35.735Z,13.50
2022-09-23T19:24:06.116Z,13.40
2022-09-23T19:26:36.740Z,13.30
2022-09-23T19:29:05.523Z,13.30
2022-09-23T19:31:35.571Z,13.30
2022-09-23T19:34:10.105Z,13.30
2022-09-23T19:36:40.136Z,13.40
2022-09-23T19:39:11.967Z,13.20
2022-09-23T19:41:38.861Z,13.20
2022-09-23T19:44:07.725Z,13.10
2022-09-23T19:46:40.893Z,13.00
2022-09-23T19:49:08.254Z,12.90
2022-09-23T19:51:35.646Z,12.90
2022-09-23T19:54:03.449Z,11.80
2022-09-23T19:56:31.962Z,13.00
2022-09-23T19:58:59.978Z,13.00
2022-09-23T20:01:29.456Z,12.90
2022-09-23T20:03:56.833Z,13.00
2022-09-23T20:06:23.945Z,13.00
2022-09-23T20:08:50.894Z,13.00
2022-09-23T20:11:24.856Z,13.00
2022-09-23T20:14:00.909Z,12.90
2022-09-23T20:16:32.481Z,12.90
2022-09-23T20:19:00.808Z,12.90
2022-09-23T20:21:29.372Z,12.90
2022-09-23T20:23:57.913Z,12.90
2022-09-23T20:26:43.428Z,12.80
2022-09-23T20:29:11.346Z,12.80
2022-09-23T20:31:40.404Z,12.70
2022-09-23T20:34:08.425Z,12.60
2022-09-23T20:36:36.118Z,12.40
2022-09-23T20:39:06.074Z,12.30
2022-09-23T20:41:37.288Z,12.30
2022-09-23T20:44:10.459Z,12.30
2022-09-23T20:46:37.794Z,12.30
2022-09-23T20:49:07.904Z,12.30
2022-09-23T20:51:39.326Z,12.30
2022-09-23T20:54:07.540Z,12.30
2022-09-23T20:56:34.528Z,12.20
2022-09-23T20:59:01.978Z,12.20
2022-09-23T21:01:29.219Z,12.20
2022-09-23T21:03:56.197Z,12.10
2022-09-23T21:06:26.982Z,12.10
2022-09-23T21:08:56.379Z,12.10
2022-09-23T21:11:23.428Z,12.10
2022-09-23T21:13:51.557Z,12.10
2022-09-23T21:16:22.561Z,12.10
2022-09-23T21:18:51.417Z,12.10
2022-09-23T21:21:19.780Z,12.00
2022-09-23T21:23:47.786Z,12.10
2022-09-23T21:26:17.847Z,12.00
2022-09-23T21:28:49.703Z,12.10
2022-09-23T21:31:23.263Z,12.10
2022-09-23T21:33:56.969Z,12.10
2022-09-23T21:36:24.736Z,12.10
2022-09-23T21:38:53.130Z,12.10
2022-09-23T21:41:20.404Z,12.10
2022-09-23T21:43:49.613Z,12.10
2022-09-23T21:46:20.775Z,12.20
2022-09-23T21:48:55.263Z,12.20
2022-09-23T21:51:27.316Z,12.20
2022-09-23T21:53:56.878Z,12.20
2022-09-23T21:56:25.381Z,12.20
2022-09-23T21:58:54.645Z,12.10
2022-09-23T22:01:30.127Z,12.10
2022-09-23T22:03:59.453Z,12.00
2022-09-23T22:06:28.177Z,11.90
2022-09-23T22:09:00.928Z,11.80
2022-09-23T22:11:48.936Z,11.90
2022-09-23T22:14:17.807Z,11.80
2022-09-23T22:16:45.493Z,11.80
2022-09-23T22:19:13.883Z,11.70
2022-09-23T22:21:42.679Z,11.70
2022-09-23T22:24:11.563Z,11.70
2022-09-23T22:26:43.289Z,11.80
2022-09-23T22:29:31.164Z,11.80
2022-09-23T22:32:25.495Z,11.70
2022-09-23T22:34:52.801Z,11.70
2022-09-23T22:37:34.389Z,11.70
2022-09-23T22:40:02.346Z,11.70
2022-09-23T22:42:31.034Z,11.70
2022-09-23T22:44:57.959Z,11.70
2022-09-23T22:47:24.907Z,11.70
2022-09-23T22:49:54.581Z,11.70
2022-09-23T22:52:24.601Z,11.70
2022-09-23T22:54:52.440Z,11.60
2022-09-23T22:57:19.671Z,11.60
2022-09-23T22:59:50.418Z,11.60
2022-09-23T23:02:19.086Z,11.60
2022-09-23T23:04:50.145Z,11.50
2022-09-23T23:07:21.500Z,11.50
2022-09-23T23:09:52.230Z,11.50
2022-09-23T23:12:20.820Z,11.50
2022-09-23T23:14:48.943Z,11.50
2022-09-23T23:17:16.125Z,11.40
2022-09-23T23:19:43.204Z,11.40
2022-09-23T23:22:10.078Z,11.40
2022-09-23T23:24:36.950Z,11.40
2022-09-23T23:27:04.002Z,11.50
2022-09-23T23:29:30.991Z,11.50
2022-09-23T23:31:57.929Z,11.40
2022-09-23T23:34:24.821Z,11.50
2022-09-23T23:36:54.926Z,11.60
2022-09-23T23:39:23.700Z,11.50
2022-09-23T23:41:55.313Z,11.50
2022-09-23T23:44:23.922Z,11.50
2022-09-23T23:46:51.177Z,11.50
2022-09-23T23:49:18.174Z,11.40
2022-09-23T23:51:45.107Z,11.40
2022-09-23T23:54:12.426Z,11.40
2022-09-23T23:56:39.458Z,11.40
2022-09-23T23:59:06.549Z,11.30
